createdAt,value
2017-01-07T00:00:34.118Z,4.7
2017-01-07T00:01:14.615Z,5.08
2017-01-07T00:01:55.303Z,5.19
2017-01-07T00:02:35.787Z,4.51
2017-01-07T00:03:16.281Z,4.61
2017-01-07T00:03:56.766Z,4.61
2017-01-07T00:04:37.251Z,4.71
2017-01-07T00:05:17.743Z,4.7
2017-01-07T00:05:58.234Z,4.61
2017-01-07T00:06:38.729Z,5.18
2017-01-07T00:07:19.233Z,4.99
2017-01-07T00:07:59.754Z,5.09
2017-01-07T00:08:40.252Z,4.61
2017-01-07T00:09:20.742Z,5.08
2017-01-07T00:10:01.235Z,4.99
2017-01-07T00:10:41.751Z,5.08
2017-01-07T00:11:22.233Z,5.19
2017-01-07T00:12:02.722Z,4.8
2017-01-07T00:12:43.205Z,4.99
2017-01-07T00:13:23.710Z,5.08
2017-01-07T00:14:04.200Z,5.08
2017-01-07T00:14:44.686Z,4.99
2017-01-07T00:15:25.185Z,5.19
2017-01-07T00:16:05.676Z,4.99
2017-01-07T00:16:46.169Z,4.99
2017-01-07T00:17:26.663Z,4.99
2017-01-07T00:18:07.151Z,4.99
2017-01-07T00:18:47.647Z,4.61
2017-01-07T00:19:28.135Z,4.99
2017-01-07T00:20:08.631Z,4.9
2017-01-07T00:20:49.120Z,4.7
2017-01-07T00:21:29.617Z,4.71
2017-01-07T00:22:10.110Z,4.71
2017-01-07T00:22:50.572Z,4.61
2017-01-07T00:23:31.064Z,4.9
2017-01-07T00:24:11.555Z,5.08
2017-01-07T00:24:52.045Z,4.99
2017-01-07T00:25:32.540Z,5.09
2017-01-07T00:26:13.030Z,5.08
2017-01-07T00:26:53.520Z,4.99
2017-01-07T00:27:34.011Z,5.18
2017-01-07T00:28:14.509Z,5.08
2017-01-07T00:28:54.988Z,5.08
2017-01-07T00:29:35.488Z,4.7
2017-01-07T00:30:15.971Z,4.99
2017-01-07T00:30:56.458Z,4.7
2017-01-07T00:31:36.940Z,4.7
2017-01-07T00:32:17.434Z,4.7
2017-01-07T00:32:57.910Z,4.7
2017-01-07T00:33:38.410Z,4.61
2017-01-07T00:34:18.898Z,4.7
2017-01-07T00:34:59.412Z,4.7
2017-01-07T00:35:39.906Z,4.7
2017-01-07T00:36:20.392Z,4.71
2017-01-07T00:37:01.017Z,4.9
2017-01-07T00:37:41.511Z,4.99
2017-01-07T00:38:22.001Z,4.61
2017-01-07T00:39:02.512Z,4.7
2017-01-07T00:39:43.007Z,5.18
2017-01-07T00:40:23.516Z,4.99
2017-01-07T00:41:04.001Z,4.9
2017-01-07T00:41:44.498Z,4.7
2017-01-07T00:42:24.977Z,4.61
2017-01-07T00:43:05.473Z,4.71
2017-01-07T00:43:45.971Z,4.9
2017-01-07T00:44:26.463Z,4.61
2017-01-07T00:45:06.953Z,5.18
2017-01-07T00:45:47.444Z,4.9
2017-01-07T00:46:27.937Z,5.19
2017-01-07T00:47:08.419Z,4.71
2017-01-07T00:47:48.918Z,4.71
2017-01-07T00:48:29.413Z,4.71
2017-01-07T00:49:09.890Z,4.7
2017-01-07T00:49:50.394Z,5.19
2017-01-07T00:50:30.881Z,5.08
2017-01-07T00:51:11.394Z,5.08
2017-01-07T00:51:51.888Z,5.08
2017-01-07T00:52:32.378Z,5.08
2017-01-07T00:53:12.860Z,4.99
2017-01-07T00:53:53.344Z,5.18
2017-01-07T00:54:33.839Z,5.09
2017-01-07T00:55:14.328Z,4.61
2017-01-07T00:55:54.822Z,4.71
2017-01-07T00:56:35.307Z,5.08
2017-01-07T00:57:15.803Z,4.61
2017-01-07T00:57:56.292Z,5.08
2017-01-07T00:58:36.776Z,4.61
2017-01-07T00:59:17.276Z,4.9
2017-01-07T00:59:57.769Z,4.99
2017-01-07T01:00:38.270Z,4.99
2017-01-07T01:01:18.760Z,4.8
2017-01-07T01:01:59.233Z,4.99
2017-01-07T01:02:39.740Z,5.18
2017-01-07T01:03:20.223Z,4.7
2017-01-07T01:04:00.725Z,4.9
2017-01-07T01:04:41.219Z,4.61
2017-01-07T01:05:21.714Z,4.71
2017-01-07T01:06:02.217Z,4.7
2017-01-07T01:06:42.712Z,4.8
2017-01-07T01:07:23.213Z,4.71
2017-01-07T01:08:03.727Z,4.71
2017-01-07T01:08:44.217Z,4.71
2017-01-07T01:09:24.721Z,4.7
2017-01-07T01:10:05.211Z,4.7
2017-01-07T01:10:45.723Z,4.61
2017-01-07T01:11:26.229Z,5.18
2017-01-07T01:12:06.721Z,4.99
2017-01-07T01:12:47.211Z,5.08
2017-01-07T01:13:27.718Z,4.9
2017-01-07T01:14:08.339Z,5.09
2017-01-07T01:16:21.126Z,5.08
2017-01-07T01:17:01.611Z,4.9
2017-01-07T01:17:42.096Z,4.99
2017-01-07T01:18:22.581Z,5.08
2017-01-07T01:19:03.076Z,4.99
2017-01-07T01:19:43.569Z,4.99
2017-01-07T01:20:24.062Z,4.7
2017-01-07T01:21:04.546Z,5.08
2017-01-07T01:21:45.026Z,4.99
2017-01-07T01:22:25.525Z,5.09
2017-01-07T01:23:06.113Z,5.09
2017-01-07T01:23:46.596Z,4.9
2017-01-07T01:24:27.083Z,4.9
2017-01-07T01:25:07.566Z,5.09
2017-01-07T01:25:48.064Z,4.61
2017-01-07T01:26:28.538Z,4.71
2017-01-07T01:27:09.029Z,4.71
2017-01-07T01:27:49.519Z,4.61
2017-01-07T01:28:30.010Z,4.99
2017-01-07T01:29:10.517Z,4.99
2017-01-07T01:29:51.005Z,4.99
2017-01-07T01:30:31.515Z,4.99
2017-01-07T01:31:12.002Z,4.8
2017-01-07T01:31:52.515Z,4.99
2017-01-07T01:32:33.003Z,4.99
2017-01-07T01:33:13.501Z,4.9
2017-01-07T01:33:53.982Z,4.9
2017-01-07T01:34:34.482Z,4.99
2017-01-07T01:35:14.963Z,4.8
2017-01-07T01:35:55.450Z,4.8
2017-01-07T01:36:35.940Z,4.9
2017-01-07T01:37:16.426Z,5.09
2017-01-07T01:37:56.901Z,4.99
2017-01-07T01:38:37.392Z,4.8
2017-01-07T01:39:17.896Z,4.7
2017-01-07T01:39:58.404Z,4.9
2017-01-07T01:40:38.894Z,4.9
2017-01-07T01:41:19.390Z,4.9
2017-01-07T01:41:59.883Z,4.99
2017-01-07T01:42:40.370Z,4.8
2017-01-07T01:43:20.853Z,4.8
2017-01-07T01:44:01.340Z,4.7
2017-01-07T01:44:41.849Z,5.08
2017-01-07T01:45:22.339Z,4.9
2017-01-07T01:46:02.835Z,4.9
2017-01-07T01:46:43.314Z,4.9
2017-01-07T01:47:23.795Z,4.9
2017-01-07T01:48:04.293Z,4.71
2017-01-07T01:48:44.779Z,4.8
2017-01-07T01:49:25.294Z,5.18
2017-01-07T01:50:05.783Z,5.08
2017-01-07T01:50:46.276Z,4.9
2017-01-07T01:51:26.760Z,4.99
2017-01-07T01:52:07.254Z,5.18
2017-01-07T01:52:47.745Z,5.28
2017-01-07T01:53:28.229Z,5.18
2017-01-07T01:54:08.722Z,5.18
2017-01-07T01:54:49.218Z,5.08
2017-01-07T01:55:29.707Z,5.08
2017-01-07T01:56:10.195Z,4.99
2017-01-07T01:56:50.675Z,4.9
2017-01-07T01:57:31.174Z,4.99
2017-01-07T01:58:11.774Z,5.08
2017-01-07T01:58:52.282Z,4.9
2017-01-07T01:59:32.773Z,4.99
2017-01-07T02:00:13.282Z,4.99
2017-01-07T02:00:53.772Z,4.71
2017-01-07T02:01:34.279Z,4.9
2017-01-07T02:02:14.773Z,4.99
2017-01-07T02:02:55.266Z,4.99
2017-01-07T02:03:35.744Z,4.99
2017-01-07T02:04:16.241Z,4.99
2017-01-07T02:04:56.728Z,4.71
2017-01-07T02:05:37.216Z,4.9
2017-01-07T02:06:17.723Z,5.08
2017-01-07T02:06:58.211Z,5.08
2017-01-07T02:07:38.710Z,5.08
2017-01-07T02:08:19.209Z,4.99
2017-01-07T02:08:59.692Z,4.99
2017-01-07T02:09:40.185Z,4.99
2017-01-07T02:10:20.666Z,5.18
2017-01-07T02:11:01.168Z,5.28
2017-01-07T02:11:41.658Z,5.28
2017-01-07T02:12:22.157Z,5.28
2017-01-07T02:13:02.665Z,5.18
2017-01-07T02:13:43.166Z,5.18
2017-01-07T02:14:23.658Z,5.18
2017-01-07T02:15:04.712Z,5.18
2017-01-07T02:15:44.634Z,5.28
2017-01-07T02:16:25.117Z,5.18
2017-01-07T02:17:05.612Z,5.18
2017-01-07T02:17:46.098Z,5.18
2017-01-07T02:18:26.598Z,5.08
2017-01-07T02:19:07.080Z,5.08
2017-01-07T02:19:47.574Z,5.08
2017-01-07T02:20:28.065Z,5.08
2017-01-07T02:21:08.549Z,5.18
2017-01-07T02:21:49.035Z,5.28
2017-01-07T02:22:29.514Z,5.18
2017-01-07T02:23:09.998Z,5.28
2017-01-07T02:23:50.494Z,5.08
2017-01-07T02:24:30.990Z,5.08
2017-01-07T02:25:11.475Z,5.28
2017-01-07T02:25:51.959Z,5.18
2017-01-07T02:26:32.442Z,5.18
2017-01-07T02:27:12.932Z,4.99
2017-01-07T02:27:53.416Z,4.99
2017-01-07T02:28:33.893Z,4.99
2017-01-07T02:29:14.396Z,4.99
2017-01-07T02:29:54.883Z,5.08
2017-01-07T02:30:35.381Z,4.99
2017-01-07T02:31:15.883Z,5.18
2017-01-07T02:31:56.392Z,5.28
2017-01-07T02:32:36.881Z,5.18
2017-01-07T02:33:17.376Z,5.18
2017-01-07T02:33:57.915Z,5.18
2017-01-07T02:34:38.411Z,5.08
2017-01-07T02:35:18.909Z,5.18
2017-01-07T02:35:59.407Z,5.08
2017-01-07T02:36:39.892Z,5.18
2017-01-07T02:37:20.388Z,5.08
2017-01-07T02:38:00.877Z,5.08
2017-01-07T02:38:41.371Z,4.99
2017-01-07T02:39:21.854Z,5.18
2017-01-07T02:40:02.328Z,4.99
2017-01-07T02:40:42.820Z,5.28
2017-01-07T02:41:23.299Z,4.99
2017-01-07T02:42:03.793Z,5.18
2017-01-07T02:42:44.296Z,5.08
2017-01-07T02:43:24.780Z,4.99
2017-01-07T02:44:05.267Z,4.9
2017-01-07T02:44:45.747Z,5.18
2017-01-07T02:45:26.226Z,5.08
2017-01-07T02:46:06.728Z,4.9
2017-01-07T02:46:47.216Z,4.99
2017-01-07T02:47:27.712Z,4.99
2017-01-07T02:48:08.223Z,4.99
2017-01-07T02:48:48.727Z,4.9
2017-01-07T02:49:29.212Z,4.9
2017-01-07T02:50:09.727Z,4.9
2017-01-07T02:50:50.211Z,4.9
2017-01-07T02:51:30.711Z,4.99
2017-01-07T02:52:11.204Z,5.08
2017-01-07T02:52:51.694Z,4.9
2017-01-07T02:53:32.180Z,5.28
2017-01-07T02:54:12.658Z,5.18
2017-01-07T02:54:53.154Z,5.08
2017-01-07T02:55:33.659Z,5.18
2017-01-07T02:56:14.163Z,5.18
2017-01-07T02:56:54.653Z,5.28
2017-01-07T02:57:35.171Z,5.28
2017-01-07T02:58:15.657Z,5.08
2017-01-07T02:58:56.151Z,5.08
2017-01-07T02:59:36.630Z,5.18
2017-01-07T03:00:17.115Z,5.18
2017-01-07T03:00:57.609Z,4.99
2017-01-07T03:01:38.097Z,5.18
2017-01-07T03:02:18.615Z,5.18
2017-01-07T03:02:59.100Z,5.28
2017-01-07T03:03:39.606Z,5.18
2017-01-07T03:04:20.099Z,5.18
2017-01-07T03:05:00.589Z,5.28
2017-01-07T03:05:41.072Z,5.08
2017-01-07T03:06:21.547Z,5.08
2017-01-07T03:07:02.054Z,5.18
2017-01-07T03:07:42.542Z,5.28
2017-01-07T03:08:23.039Z,5.08
2017-01-07T03:09:03.541Z,5.18
2017-01-07T03:09:44.037Z,5.18
2017-01-07T03:10:24.517Z,5.18
2017-01-07T03:11:04.990Z,4.99
2017-01-07T03:11:45.497Z,5.18
2017-01-07T03:12:25.987Z,5.28
2017-01-07T03:13:06.482Z,5.18
2017-01-07T03:13:46.990Z,5.09
2017-01-07T03:14:27.496Z,5.08
2017-01-07T03:15:07.983Z,5.18
2017-01-07T03:15:48.465Z,5.18
2017-01-07T03:16:28.979Z,5.18
2017-01-07T03:17:09.433Z,5.18
2017-01-07T03:17:49.931Z,5.08
2017-01-07T03:18:30.419Z,5.08
2017-01-07T03:19:10.884Z,5.28
2017-01-07T03:21:23.672Z,4.99
2017-01-07T03:22:04.160Z,5.18
2017-01-07T03:22:44.668Z,5.28
2017-01-07T03:25:02.500Z,5.28
2017-01-07T03:25:42.980Z,5.08
2017-01-07T03:26:23.484Z,5.28
2017-01-07T03:27:03.969Z,5.08
2017-01-07T03:27:44.482Z,5.28
2017-01-07T03:28:24.967Z,5.18
2017-01-07T03:29:05.464Z,5.08
2017-01-07T03:29:46.085Z,5.28
2017-01-07T03:30:26.576Z,5.28
2017-01-07T03:31:07.064Z,5.18
2017-01-07T03:31:47.550Z,5.18
2017-01-07T03:32:28.032Z,5.28
2017-01-07T03:33:08.513Z,5.28
2017-01-07T03:33:49.024Z,5.18
2017-01-07T03:34:29.510Z,4.99
2017-01-07T03:35:09.995Z,4.99
2017-01-07T03:35:50.475Z,5.28
2017-01-07T03:36:30.962Z,4.99
2017-01-07T03:37:11.454Z,5.18
2017-01-07T03:37:51.936Z,5.08
2017-01-07T03:38:32.412Z,5.18
2017-01-07T03:39:12.921Z,5.18
2017-01-07T03:39:53.406Z,5.28
2017-01-07T03:40:33.899Z,5.18
2017-01-07T03:41:14.388Z,5.18
2017-01-07T03:41:54.881Z,5.18
2017-01-07T03:42:35.379Z,5.08
2017-01-07T03:43:15.856Z,5.08
2017-01-07T03:43:56.360Z,5.28
2017-01-07T03:44:36.848Z,4.99
2017-01-07T03:45:17.349Z,5.08
2017-01-07T03:45:57.851Z,5.08
2017-01-07T03:46:38.343Z,4.99
2017-01-07T03:47:18.826Z,5.18
2017-01-07T03:47:59.309Z,5.18
2017-01-07T03:48:39.805Z,5.18
2017-01-07T03:49:20.293Z,5.08
2017-01-07T03:50:00.813Z,5.18
2017-01-07T03:50:41.295Z,5.18
2017-01-07T03:51:21.793Z,5.08
2017-01-07T03:52:02.307Z,5.28
2017-01-07T03:52:42.802Z,5.38
2017-01-07T03:53:23.293Z,5.38
2017-01-07T03:54:03.788Z,5.08
2017-01-07T03:54:44.271Z,5.18
2017-01-07T03:55:24.761Z,5.28
2017-01-07T03:56:05.251Z,5.28
2017-01-07T03:56:45.742Z,5.28
2017-01-07T03:57:26.247Z,5.28
2017-01-07T03:58:06.734Z,5.08
2017-01-07T03:58:47.254Z,5.18
2017-01-07T03:59:27.737Z,5.18
2017-01-07T04:00:08.234Z,5.18
2017-01-07T04:00:48.713Z,5.28
2017-01-07T04:01:29.189Z,5.28
2017-01-07T04:02:09.692Z,5.18
2017-01-07T04:02:50.182Z,5.08
2017-01-07T04:03:30.695Z,5.18
2017-01-07T04:04:11.181Z,5.18
2017-01-07T04:04:51.680Z,4.99
2017-01-07T04:05:32.178Z,5.18
2017-01-07T04:06:12.667Z,5.28
2017-01-07T04:06:53.152Z,5.28
2017-01-07T04:07:33.632Z,5.18
2017-01-07T04:08:14.134Z,5.18
2017-01-07T04:08:54.625Z,4.99
2017-01-07T04:09:35.122Z,4.99
2017-01-07T04:10:15.616Z,4.99
2017-01-07T04:10:56.094Z,5.18
2017-01-07T04:11:36.585Z,5.18
2017-01-07T04:12:17.073Z,5.18
2017-01-07T04:12:57.564Z,5.08
2017-01-07T04:13:38.051Z,5.08
2017-01-07T04:14:18.548Z,5.08
2017-01-07T04:14:59.039Z,5.28
2017-01-07T04:15:39.523Z,4.99
2017-01-07T04:16:20.038Z,5.08
2017-01-07T04:17:00.537Z,5.18
2017-01-07T04:17:41.028Z,5.08
2017-01-07T04:18:21.517Z,5.18
2017-01-07T04:19:02.035Z,4.99
2017-01-07T04:19:42.518Z,5.08
2017-01-07T04:20:23.021Z,5.28
2017-01-07T04:21:03.512Z,4.99
2017-01-07T04:21:43.999Z,5.08
2017-01-07T04:22:24.488Z,5.08
2017-01-07T04:23:04.965Z,4.99
2017-01-07T04:23:45.458Z,4.99
2017-01-07T04:24:25.960Z,5.18
2017-01-07T04:25:06.456Z,5.18
2017-01-07T04:25:46.960Z,5.28
2017-01-07T04:26:27.475Z,5.19
2017-01-07T04:27:07.966Z,5.18
2017-01-07T04:27:48.456Z,5.28
2017-01-07T04:28:28.936Z,5.28
2017-01-07T04:29:09.441Z,5.18
2017-01-07T04:29:49.927Z,5.18
2017-01-07T04:30:30.408Z,5.28
2017-01-07T04:31:10.913Z,5.18
2017-01-07T04:31:51.405Z,4.99
2017-01-07T04:32:31.901Z,5.08
2017-01-07T04:33:12.381Z,5.08
2017-01-07T04:33:52.873Z,5.18
2017-01-07T04:34:33.367Z,5.28
2017-01-07T04:35:13.851Z,5.08
2017-01-07T04:35:54.363Z,5.18
2017-01-07T04:36:34.848Z,5.18
2017-01-07T04:37:15.345Z,5.18
2017-01-07T04:37:55.849Z,4.9
2017-01-07T04:38:36.326Z,5.28
2017-01-07T04:39:16.821Z,4.99
2017-01-07T04:39:57.311Z,4.99
2017-01-07T04:40:37.803Z,4.99
2017-01-07T04:41:18.291Z,5.28
2017-01-07T04:41:58.789Z,5.38
2017-01-07T04:42:39.286Z,5.18
2017-01-07T04:43:19.768Z,5.28
2017-01-07T04:44:00.269Z,5.38
2017-01-07T04:44:40.744Z,5.18
2017-01-07T04:45:21.252Z,5.28
2017-01-07T04:46:01.740Z,5.47
2017-01-07T04:46:42.232Z,5.47
2017-01-07T04:47:22.714Z,5.57
2017-01-07T04:48:03.197Z,5.08
2017-01-07T04:48:43.696Z,5.38
2017-01-07T04:49:24.181Z,5.38
2017-01-07T04:50:04.680Z,5.18
2017-01-07T04:50:45.160Z,5.38
2017-01-07T04:51:25.651Z,5.18
2017-01-07T04:52:06.143Z,5.18
2017-01-07T04:52:46.631Z,5.18
2017-01-07T04:53:27.145Z,5.28
2017-01-07T04:54:07.632Z,5.28
2017-01-07T04:54:48.139Z,4.99
2017-01-07T04:55:28.627Z,4.99
2017-01-07T04:56:09.123Z,5.28
2017-01-07T04:56:49.631Z,5.28
2017-01-07T04:57:30.121Z,4.9
2017-01-07T04:58:10.620Z,5.08
2017-01-07T04:58:51.104Z,5.28
2017-01-07T04:59:31.593Z,5.28
2017-01-07T05:00:12.078Z,5.28
2017-01-07T05:00:52.580Z,5.28
2017-01-07T05:01:33.071Z,5.08
2017-01-07T05:02:13.568Z,5.08
2017-01-07T05:02:54.069Z,5.28
2017-01-07T05:03:34.583Z,4.99
2017-01-07T05:04:15.067Z,5.08
2017-01-07T05:04:55.565Z,5.28
2017-01-07T05:05:36.047Z,5.28
2017-01-07T05:06:16.537Z,5.38
2017-01-07T05:06:57.035Z,5.28
2017-01-07T05:07:37.515Z,5.08
2017-01-07T05:08:18.028Z,5.08
2017-01-07T05:08:58.514Z,5.47
2017-01-07T05:09:39.026Z,5.18
2017-01-07T05:10:19.510Z,4.99
2017-01-07T05:11:00.007Z,4.99
2017-01-07T05:11:40.488Z,5.19
2017-01-07T05:12:20.963Z,5.18
2017-01-07T05:13:01.459Z,5.18
2017-01-07T05:13:41.952Z,5.28
2017-01-07T05:14:22.422Z,4.99
2017-01-07T05:15:02.916Z,5.28
2017-01-07T05:15:43.405Z,5.28
2017-01-07T05:16:23.961Z,5.28
2017-01-07T05:17:04.452Z,5.18
2017-01-07T05:17:44.968Z,5.08
2017-01-07T05:18:25.463Z,5.18
2017-01-07T05:19:05.953Z,5.08
2017-01-07T05:19:46.439Z,5.18
2017-01-07T05:20:26.930Z,5.08
2017-01-07T05:21:07.407Z,5.18
2017-01-07T05:21:47.895Z,5.18
2017-01-07T05:22:28.389Z,5.18
2017-01-07T05:23:08.869Z,5.18
2017-01-07T05:23:49.360Z,5.28
2017-01-07T05:24:29.847Z,5.18
2017-01-07T05:25:10.346Z,5.18
2017-01-07T05:25:50.827Z,5.57
2017-01-07T05:26:31.325Z,5.08
2017-01-07T05:27:11.810Z,5.08
2017-01-07T05:27:52.294Z,5.38
2017-01-07T05:28:32.788Z,5.28
2017-01-07T05:29:13.295Z,5.28
2017-01-07T05:29:53.796Z,5.47
2017-01-07T05:30:34.285Z,5.47
2017-01-07T05:31:14.790Z,5.38
2017-01-07T05:31:55.290Z,5.38
2017-01-07T05:32:35.808Z,5.08
2017-01-07T05:33:16.294Z,5.08
2017-01-07T05:33:56.798Z,5.08
2017-01-07T05:34:37.288Z,5.18
2017-01-07T05:35:17.780Z,5.08
2017-01-07T05:35:58.321Z,5.18
2017-01-07T05:36:38.807Z,5.28
2017-01-07T05:37:19.286Z,5.28
2017-01-07T05:37:59.778Z,5.38
2017-01-07T05:38:40.261Z,5.18
2017-01-07T05:39:20.746Z,5.47
2017-01-07T05:40:01.239Z,5.18
2017-01-07T05:40:41.737Z,4.99
2017-01-07T05:41:23.166Z,5.18
2017-01-07T05:42:03.654Z,5.18
2017-01-07T05:42:44.259Z,5.08
2017-01-07T05:43:26.152Z,5.18
2017-01-07T05:44:05.528Z,4.99
2017-01-07T05:44:46.024Z,5.08
2017-01-07T05:45:26.672Z,4.99
2017-01-07T05:46:07.700Z,5.18
2017-01-07T05:46:48.652Z,5.08
2017-01-07T05:47:28.665Z,5.28
2017-01-07T05:48:09.188Z,5.18
2017-01-07T05:48:49.678Z,5.18
2017-01-07T05:49:30.181Z,5.18
2017-01-07T05:50:10.667Z,5.28
2017-01-07T05:50:51.160Z,5.28
2017-01-07T05:51:31.644Z,5.38
2017-01-07T05:52:12.133Z,5.28
2017-01-07T05:52:53.154Z,5.08
2017-01-07T05:53:34.112Z,5.08
2017-01-07T05:54:14.596Z,5.18
2017-01-07T05:54:55.095Z,5.08
2017-01-07T05:55:35.584Z,5.08
2017-01-07T05:56:16.077Z,5.08
2017-01-07T05:56:56.557Z,5.38
2017-01-07T05:57:37.059Z,5.28
2017-01-07T05:58:17.551Z,5.19
2017-01-07T05:58:58.036Z,4.99
2017-01-07T05:59:38.538Z,5.09
2017-01-07T06:00:19.029Z,5.28
2017-01-07T06:00:59.522Z,5.19
2017-01-07T06:01:40.027Z,5.19
2017-01-07T06:02:21.119Z,5.18
2017-01-07T06:03:01.602Z,4.99
2017-01-07T06:03:42.089Z,5.19
2017-01-07T06:04:23.536Z,5.19
2017-01-07T06:05:04.018Z,5.28
2017-01-07T06:05:45.162Z,5.28
2017-01-07T06:06:24.984Z,5.28
2017-01-07T06:07:05.481Z,5.18
2017-01-07T06:07:45.972Z,5.18
2017-01-07T06:08:26.456Z,5.08
2017-01-07T06:09:07.582Z,5.18
2017-01-07T06:09:48.797Z,5.19
2017-01-07T06:10:29.808Z,5.28
2017-01-07T06:11:10.293Z,5.18
2017-01-07T06:11:50.805Z,5.18
2017-01-07T06:12:31.293Z,4.99
2017-01-07T06:13:12.503Z,5.28
2017-01-07T06:13:52.988Z,5.38
2017-01-07T06:14:34.111Z,5.18
2017-01-07T06:15:14.600Z,5.28
2017-01-07T06:15:55.098Z,5.28
2017-01-07T06:16:35.613Z,5.38
2017-01-07T06:17:16.133Z,5.28
2017-01-07T06:17:56.622Z,5.08
2017-01-07T06:18:37.115Z,5.18
2017-01-07T06:19:17.581Z,4.9
2017-01-07T06:19:58.063Z,4.99
2017-01-07T06:20:38.561Z,5.38
2017-01-07T06:21:19.042Z,5.18
2017-01-07T06:22:00.309Z,5.18
2017-01-07T06:22:40.799Z,5.18
2017-01-07T06:23:21.275Z,5.28
2017-01-07T06:24:01.757Z,5.18
2017-01-07T06:24:42.246Z,5.28
2017-01-07T06:25:22.723Z,5.08
2017-01-07T06:26:03.224Z,5.08
2017-01-07T06:26:43.722Z,5.47
2017-01-07T06:27:24.216Z,5.08
2017-01-07T06:28:04.703Z,5.18
2017-01-07T06:28:45.188Z,5.08
2017-01-07T06:29:26.177Z,5.18
2017-01-07T06:30:06.168Z,5.28
2017-01-07T06:30:46.672Z,5.28
2017-01-07T06:31:27.160Z,5.28
2017-01-07T06:32:08.175Z,5.08
2017-01-07T06:32:48.119Z,5.08
2017-01-07T06:33:28.635Z,5.38
2017-01-07T06:34:09.120Z,5.38
2017-01-07T06:34:49.625Z,5.38
2017-01-07T06:35:30.124Z,5.38
2017-01-07T06:36:10.613Z,5.28
2017-01-07T06:36:51.113Z,5.28
2017-01-07T06:37:31.626Z,5.47
2017-01-07T06:38:12.113Z,5.18
2017-01-07T06:38:52.632Z,5.18
2017-01-07T06:39:33.114Z,5.28
2017-01-07T06:40:13.607Z,5.57
2017-01-07T06:40:54.089Z,5.47
2017-01-07T06:41:34.569Z,5.28
2017-01-07T06:42:15.068Z,5.18
2017-01-07T06:42:55.559Z,5.47
2017-01-07T06:43:36.054Z,5.47
2017-01-07T06:44:16.541Z,5.47
2017-01-07T06:44:57.644Z,5.57
2017-01-07T06:45:38.133Z,5.28
2017-01-07T06:46:18.619Z,5.08
2017-01-07T06:46:59.110Z,5.08
2017-01-07T06:47:39.581Z,5.47
2017-01-07T06:48:20.067Z,5.28
2017-01-07T06:49:00.552Z,5.28
2017-01-07T06:49:41.037Z,5.28
2017-01-07T06:50:21.524Z,5.28
2017-01-07T06:51:02.020Z,5.28
2017-01-07T06:51:42.508Z,5.38
2017-01-07T06:52:23.160Z,5.18
2017-01-07T06:53:03.671Z,5.08
2017-01-07T06:53:44.163Z,5.18
2017-01-07T06:54:24.669Z,5.08
2017-01-07T06:55:05.159Z,5.08
2017-01-07T06:55:45.659Z,5.18
2017-01-07T06:56:26.152Z,5.18
2017-01-07T06:57:06.631Z,5.08
2017-01-07T06:57:47.116Z,5.08
2017-01-07T06:58:27.607Z,5.28
2017-01-07T06:59:08.674Z,5.18
2017-01-07T06:59:48.603Z,5.18
2017-01-07T07:00:29.101Z,5.47
2017-01-07T07:01:09.581Z,5.57
2017-01-07T07:01:50.074Z,5.47
2017-01-07T07:02:31.416Z,5.47
2017-01-07T07:03:11.905Z,5.57
2017-01-07T07:03:52.390Z,5.47
2017-01-07T07:04:32.871Z,5.47
2017-01-07T07:05:13.379Z,5.18
2017-01-07T07:05:53.867Z,5.08
2017-01-07T07:06:34.359Z,5.18
2017-01-07T07:07:14.850Z,5.08
2017-01-07T07:07:55.339Z,5.08
2017-01-07T07:08:35.840Z,5.28
2017-01-07T07:09:16.315Z,5.28
2017-01-07T07:09:56.809Z,5.28
2017-01-07T07:10:37.310Z,5.28
2017-01-07T07:11:17.796Z,5.08
2017-01-07T07:11:58.291Z,5.08
2017-01-07T07:12:38.784Z,5.08
2017-01-07T07:13:19.286Z,5.38
2017-01-07T07:13:59.760Z,5.28
2017-01-07T07:14:40.243Z,5.28
2017-01-07T07:15:20.732Z,5.19
2017-01-07T07:16:01.219Z,5.28
2017-01-07T07:16:41.716Z,5.38
2017-01-07T07:17:22.207Z,4.99
2017-01-07T07:18:03.180Z,5.19
2017-01-07T07:18:43.208Z,4.99
2017-01-07T07:19:23.719Z,5.19
2017-01-07T07:20:04.202Z,5.28
2017-01-07T07:20:44.698Z,5.18
2017-01-07T07:21:25.187Z,5.18
2017-01-07T07:22:05.666Z,5.08
2017-01-07T07:22:46.160Z,5.28
2017-01-07T07:23:26.647Z,5.08
2017-01-07T07:24:07.138Z,5.57
2017-01-07T07:24:48.126Z,5.57
2017-01-07T07:25:29.180Z,5.47
2017-01-07T07:26:09.097Z,5.38
2017-01-07T07:26:50.181Z,5.47
2017-01-07T07:27:30.082Z,5.47
2017-01-07T07:28:10.560Z,5.47
2017-01-07T07:28:51.052Z,5.47
2017-01-07T07:29:31.551Z,5.28
2017-01-07T07:30:12.044Z,5.38
2017-01-07T07:30:53.172Z,5.47
2017-01-07T07:31:33.660Z,5.47
2017-01-07T07:32:14.145Z,5.57
2017-01-07T07:32:54.637Z,5.47
2017-01-07T07:33:35.115Z,5.47
2017-01-07T07:34:15.618Z,5.28
2017-01-07T07:34:56.102Z,5.38
2017-01-07T07:35:36.588Z,5.85
2017-01-07T07:36:17.067Z,5.47
2017-01-07T07:36:58.065Z,5.47
2017-01-07T07:37:39.185Z,5.38
2017-01-07T07:38:19.695Z,5.38
2017-01-07T07:39:00.205Z,5.66
2017-01-07T07:39:41.185Z,5.76
2017-01-07T07:40:21.177Z,5.76
2017-01-07T07:41:01.652Z,5.76
2017-01-07T07:41:42.272Z,5.66
2017-01-07T07:42:22.757Z,5.66
2017-01-07T07:43:03.241Z,5.76
2017-01-07T07:43:43.739Z,5.76
2017-01-07T07:44:24.223Z,5.86
2017-01-07T07:45:05.185Z,5.66
2017-01-07T07:45:45.202Z,5.85
2017-01-07T07:46:26.185Z,5.66
2017-01-07T07:47:06.166Z,5.76
2017-01-07T07:47:46.667Z,5.66
2017-01-07T07:48:27.152Z,5.57
2017-01-07T07:49:07.645Z,5.66
2017-01-07T07:49:48.132Z,5.66
2017-01-07T07:50:28.626Z,5.47
2017-01-07T07:51:09.112Z,5.76
2017-01-07T07:53:02.194Z,5.76
2017-01-07T07:53:43.269Z,5.57
2017-01-07T07:54:23.168Z,5.66
2017-01-07T07:55:03.663Z,5.57
2017-01-07T07:55:44.144Z,5.66
2017-01-07T07:56:24.616Z,5.85
2017-01-07T07:57:05.125Z,5.76
2017-01-07T07:57:45.610Z,5.47
2017-01-07T07:58:26.091Z,5.57
2017-01-07T07:59:06.575Z,5.76
2017-01-07T07:59:47.192Z,5.66
2017-01-07T08:00:27.684Z,5.66
2017-01-07T08:01:08.155Z,5.66
2017-01-07T08:01:48.644Z,5.76
2017-01-07T08:02:29.132Z,5.57
2017-01-07T08:03:09.619Z,5.85
2017-01-07T08:03:50.770Z,5.57
2017-01-07T08:04:30.770Z,5.85
2017-01-07T08:05:11.257Z,5.85
2017-01-07T08:05:51.736Z,5.85
2017-01-07T08:06:32.221Z,5.76
2017-01-07T08:07:13.554Z,5.76
2017-01-07T08:07:54.737Z,5.85
2017-01-07T08:08:35.239Z,5.95
2017-01-07T08:09:15.755Z,5.95
2017-01-07T08:09:56.239Z,5.86
2017-01-07T08:10:36.730Z,5.95
2017-01-07T08:11:17.234Z,5.76
2017-01-07T08:11:57.704Z,5.96
2017-01-07T08:12:38.196Z,5.95
2017-01-07T08:13:18.686Z,5.95
2017-01-07T08:13:59.315Z,5.66
2017-01-07T08:14:39.794Z,5.85
2017-01-07T08:15:20.296Z,5.76
2017-01-07T08:16:01.274Z,5.96
2017-01-07T08:16:41.263Z,5.86
2017-01-07T08:17:21.746Z,5.86
2017-01-07T08:18:02.292Z,6.05
2017-01-07T08:18:42.782Z,6.05
2017-01-07T08:19:23.286Z,5.66
2017-01-07T08:20:04.774Z,5.96
2017-01-07T08:20:44.303Z,5.57
2017-01-07T08:21:24.788Z,5.76
2017-01-07T08:22:05.295Z,5.76
2017-01-07T08:22:45.780Z,6.05
2017-01-07T08:23:26.277Z,5.95
2017-01-07T08:24:06.775Z,5.95
2017-01-07T08:24:47.288Z,6.15
2017-01-07T08:25:27.795Z,6.15
2017-01-07T08:26:08.257Z,6.05
2017-01-07T08:26:48.748Z,6.15
2017-01-07T08:27:29.241Z,5.96
2017-01-07T08:28:10.257Z,5.95
2017-01-07T08:28:50.737Z,5.95
2017-01-07T08:29:31.225Z,5.95
2017-01-07T08:30:11.728Z,5.95
2017-01-07T08:30:53.017Z,5.96
2017-01-07T08:31:34.276Z,5.86
2017-01-07T08:32:13.995Z,5.76
2017-01-07T08:32:54.472Z,5.76
2017-01-07T08:33:34.973Z,5.95
2017-01-07T08:34:15.457Z,6.05
2017-01-07T08:34:55.955Z,6.15
2017-01-07T08:35:36.439Z,6.05
2017-01-07T08:36:17.777Z,6.24
2017-01-07T08:36:57.401Z,6.34
2017-01-07T08:37:37.890Z,6.05
2017-01-07T08:38:18.382Z,6.24
2017-01-07T08:38:58.856Z,6.34
2017-01-07T08:39:39.337Z,6.24
2017-01-07T08:40:19.828Z,6.15
2017-01-07T08:41:00.950Z,6.15
2017-01-07T08:41:41.442Z,5.96
2017-01-07T08:42:21.925Z,6.34
2017-01-07T08:43:02.420Z,6.34
2017-01-07T08:43:42.908Z,6.15
2017-01-07T08:44:23.393Z,6.15
2017-01-07T08:45:03.879Z,6.15
2017-01-07T08:45:44.354Z,6.15
2017-01-07T08:46:24.843Z,6.34
2017-01-07T08:47:05.349Z,6.15
2017-01-07T08:47:45.842Z,6.24
2017-01-07T08:48:26.332Z,6.34
2017-01-07T08:49:06.833Z,6.24
2017-01-07T08:49:47.320Z,6.15
2017-01-07T08:50:27.810Z,6.15
2017-01-07T08:51:08.300Z,6.24
2017-01-07T08:51:48.791Z,6.24
2017-01-07T08:52:29.279Z,6.24
2017-01-07T08:53:09.790Z,6.34
2017-01-07T08:53:50.277Z,6.24
2017-01-07T08:54:30.775Z,6.34
2017-01-07T08:55:11.269Z,6.24
2017-01-07T08:55:51.828Z,6.24
2017-01-07T08:56:32.313Z,6.24
2017-01-07T08:57:12.789Z,6.43
2017-01-07T08:57:53.278Z,6.53
2017-01-07T08:58:33.792Z,6.43
2017-01-07T08:59:14.282Z,6.43
2017-01-07T08:59:54.784Z,6.53
2017-01-07T09:00:35.795Z,6.63
2017-01-07T09:02:23.280Z,6.63
2017-01-07T09:03:03.783Z,6.72
2017-01-07T09:03:44.248Z,6.63
2017-01-07T09:04:24.732Z,6.63
2017-01-07T09:05:05.228Z,6.63
2017-01-07T09:05:45.722Z,6.82
2017-01-07T09:06:26.206Z,6.72
2017-01-07T09:07:06.697Z,6.72
2017-01-07T09:07:47.194Z,6.53